sensor_id;sensor_type;location;lat;lon;timestamp;pressure;altitude;pressure_sealevel;temperature;humidity
9009;BME280;62813;51.424;6.762;2023-08-24T00:02:14;101481.81;;;21.49;63.95
9009;BME280;62813;51.424;6.762;2023-08-24T00:04:41;101481.94;;;21.61;63.30
9009;BME280;62813;51.424;6.762;2023-08-24T00:07:08;101479.91;;;21.49;63.80
9009;BME280;62813;51.424;6.762;2023-08-24T00:09:35;101483.41;;;21.50;64.21
9009;BME280;62813;51.424;6.762;2023-08-24T00:12:02;101472.78;;;21.62;63.61
9009;BME280;62813;51.424;6.762;2023-08-24T00:14:29;101473.44;;;21.59;63.27
9009;BME280;62813;51.424;6.762;2023-08-24T00:16:55;101475.50;;;21.53;63.88
9009;BME280;62813;51.424;6.762;2023-08-24T00:19:22;101470.91;;;21.63;63.49
9009;BME280;62813;51.424;6.762;2023-08-24T00:22:03;101461.44;;;21.57;63.98
9009;BME280;62813;51.424;6.762;2023-08-24T00:24:44;101461.44;;;21.57;63.43
9009;BME280;62813;51.424;6.762;2023-08-24T00:27:11;101460.97;;;21.55;63.17
9009;BME280;62813;51.424;6.762;2023-08-24T00:29:40;101465.41;;;21.50;63.69
9009;BME280;62813;51.424;6.762;2023-08-24T00:32:06;101459.56;;;21.40;64.17
9009;BME280;62813;51.424;6.762;2023-08-24T00:34:49;101465.41;;;21.33;64.71
9009;BME280;62813;51.424;6.762;2023-08-24T00:37:30;101463.19;;;21.35;64.21
9009;BME280;62813;51.424;6.762;2023-08-24T00:39:59;101457.69;;;21.40;63.94
9009;BME280;62813;51.424;6.762;2023-08-24T00:42:26;101450.56;;;21.27;64.17
9009;BME280;62813;51.424;6.762;2023-08-24T00:44:52;101455.13;;;21.27;64.68
9009;BME280;62813;51.424;6.762;2023-08-24T00:47:19;101443.47;;;21.40;63.90
9009;BME280;62813;51.424;6.762;2023-08-24T00:49:47;101443.66;;;21.35;64.64
9009;BME280;62813;51.424;6.762;2023-08-24T00:52:14;101446.47;;;21.30;64.58
9009;BME280;62813;51.424;6.762;2023-08-24T00:54:41;101449.94;;;21.39;64.39
9009;BME280;62813;51.424;6.762;2023-08-24T00:57:07;101441.72;;;21.52;63.57
9009;BME280;62813;51.424;6.762;2023-08-24T00:59:34;101447.09;;;21.44;64.19
9009;BME280;62813;51.424;6.762;2023-08-24T01:02:02;101437.63;;;21.46;63.99
9009;BME280;62813;51.424;6.762;2023-08-24T01:04:28;101426.91;;;21.46;64.25
9009;BME280;62813;51.424;6.762;2023-08-24T01:06:55;101427.88;;;21.33;64.57
9009;BME280;62813;51.424;6.762;2023-08-24T01:09:22;101423.75;;;21.27;64.58
9009;BME280;62813;51.424;6.762;2023-08-24T01:12:02;101434.03;;;21.34;64.22
9009;BME280;62813;51.424;6.762;2023-08-24T01:14:50;101429.91;;;21.36;64.38
9009;BME280;62813;51.424;6.762;2023-08-24T01:17:23;101428.50;;;21.30;64.19
9009;BME280;62813;51.424;6.762;2023-08-24T01:19:51;101429.78;;;21.33;64.57
9009;BME280;62813;51.424;6.762;2023-08-24T01:25:16;101435.44;;;21.40;64.44
9009;BME280;62813;51.424;6.762;2023-08-24T01:27:43;101439.22;;;21.30;64.45
9009;BME280;62813;51.424;6.762;2023-08-24T01:30:10;101443.19;;;21.24;64.55
9009;BME280;62813;51.424;6.762;2023-08-24T01:32:37;101442.53;;;21.36;64.63
9009;BME280;62813;51.424;6.762;2023-08-24T01:35:06;101439.81;;;21.10;65.72
9009;BME280;62813;51.424;6.762;2023-08-24T01:37:34;101437.94;;;21.28;64.67
9009;BME280;62813;51.424;6.762;2023-08-24T01:40:13;101429.47;;;21.34;64.80
9009;BME280;62813;51.424;6.762;2023-08-24T01:42:59;101428.66;;;21.34;64.58
9009;BME280;62813;51.424;6.762;2023-08-24T01:45:30;101425.50;;;21.32;65.08
9009;BME280;62813;51.424;6.762;2023-08-24T01:48:03;101419.97;;;21.28;65.20
9009;BME280;62813;51.424;6.762;2023-08-24T01:50:31;101412.91;;;21.24;64.89
9009;BME280;62813;51.424;6.762;2023-08-24T01:52:58;101416.47;;;21.10;66.09
9009;BME280;62813;51.424;6.762;2023-08-24T01:55:25;101415.69;;;21.10;65.36
9009;BME280;62813;51.424;6.762;2023-08-24T01:57:52;101421.84;;;21.10;65.85
9009;BME280;62813;51.424;6.762;2023-08-24T02:00:19;101413.97;;;21.14;65.57
9009;BME280;62813;51.424;6.762;2023-08-24T02:02:45;101424.56;;;21.19;65.41
9009;BME280;62813;51.424;6.762;2023-08-24T02:05:12;101422.63;;;21.11;65.38
9009;BME280;62813;51.424;6.762;2023-08-24T02:07:39;101424.69;;;21.05;65.98
9009;BME280;62813;51.424;6.762;2023-08-24T02:10:07;101419.94;;;21.02;66.70
9009;BME280;62813;51.424;6.762;2023-08-24T02:12:34;101415.69;;;21.01;65.93
9009;BME280;62813;51.424;6.762;2023-08-24T02:15:00;101415.41;;;21.20;65.31
9009;BME280;62813;51.424;6.762;2023-08-24T02:17:27;101415.84;;;21.05;65.64
9009;BME280;62813;51.424;6.762;2023-08-24T02:19:55;101400.88;;;21.12;65.16
9009;BME280;62813;51.424;6.762;2023-08-24T02:22:21;101404.97;;;21.01;65.45
9009;BME280;62813;51.424;6.762;2023-08-24T02:24:48;101394.09;;;20.98;65.89
9009;BME280;62813;51.424;6.762;2023-08-24T02:27:15;101398.38;;;21.07;65.62
9009;BME280;62813;51.424;6.762;2023-08-24T02:29:41;101396.78;;;20.81;67.23
9009;BME280;62813;51.424;6.762;2023-08-24T02:32:08;101404.50;;;20.91;66.22
9009;BME280;62813;51.424;6.762;2023-08-24T02:34:34;101405.13;;;20.96;65.95
9009;BME280;62813;51.424;6.762;2023-08-24T02:37:01;101413.16;;;20.96;65.75
9009;BME280;62813;51.424;6.762;2023-08-24T02:39:28;101398.97;;;21.04;65.69
9009;BME280;62813;51.424;6.762;2023-08-24T02:41:54;101402.44;;;20.96;65.73
9009;BME280;62813;51.424;6.762;2023-08-24T02:44:21;101394.09;;;20.98;65.84
9009;BME280;62813;51.424;6.762;2023-08-24T02:46:48;101395.38;;;21.00;65.64
9009;BME280;62813;51.424;6.762;2023-08-24T02:49:15;101400.38;;;20.93;66.00
9009;BME280;62813;51.424;6.762;2023-08-24T02:51:42;101399.94;;;20.91;66.67
9009;BME280;62813;51.424;6.762;2023-08-24T02:54:09;101403.56;;;20.95;65.15
9009;BME280;62813;51.424;6.762;2023-08-24T02:56:35;101406.72;;;20.89;66.28
9009;BME280;62813;51.424;6.762;2023-08-24T02:59:02;101416.81;;;20.92;66.26
9009;BME280;62813;51.424;6.762;2023-08-24T03:01:28;101418.22;;;20.89;66.42
9009;BME280;62813;51.424;6.762;2023-08-24T03:03:55;101411.44;;;20.92;66.38
9009;BME280;62813;51.424;6.762;2023-08-24T03:06:22;101398.81;;;20.75;66.79
9009;BME280;62813;51.424;6.762;2023-08-24T03:08:50;101391.09;;;20.73;67.02
9009;BME280;62813;51.424;6.762;2023-08-24T03:11:17;101399.25;;;20.68;67.38
9009;BME280;62813;51.424;6.762;2023-08-24T03:13:43;101402.28;;;20.67;67.13
9009;BME280;62813;51.424;6.762;2023-08-24T03:16:10;101396.59;;;20.68;66.49
9009;BME280;62813;51.424;6.762;2023-08-24T03:18:37;101393.78;;;20.73;65.79
9009;BME280;62813;51.424;6.762;2023-08-24T03:21:04;101392.66;;;20.66;66.91
9009;BME280;62813;51.424;6.762;2023-08-24T03:23:30;101388.91;;;20.75;66.31
9009;BME280;62813;51.424;6.762;2023-08-24T03:25:57;101400.72;;;20.83;65.89
9009;BME280;62813;51.424;6.762;2023-08-24T03:28:24;101407.78;;;20.70;66.02
9009;BME280;62813;51.424;6.762;2023-08-24T03:30:52;101409.38;;;20.80;65.88
9009;BME280;62813;51.424;6.762;2023-08-24T03:33:21;101407.31;;;20.77;66.34
9009;BME280;62813;51.424;6.762;2023-08-24T03:35:48;101413.16;;;20.79;65.79
9009;BME280;62813;51.424;6.762;2023-08-24T03:38:16;101414.25;;;20.87;65.89
9009;BME280;62813;51.424;6.762;2023-08-24T03:40:42;101414.22;;;20.69;66.78
9009;BME280;62813;51.424;6.762;2023-08-24T03:43:09;101434.09;;;20.77;66.51
9009;BME280;62813;51.424;6.762;2023-08-24T03:45:36;101427.81;;;20.82;65.41
9009;BME280;62813;51.424;6.762;2023-08-24T03:48:03;101425.47;;;20.89;65.92
9009;BME280;62813;51.424;6.762;2023-08-24T03:50:29;101430.81;;;20.89;65.92
9009;BME280;62813;51.424;6.762;2023-08-24T03:52:56;101425.63;;;20.92;66.30
9009;BME280;62813;51.424;6.762;2023-08-24T03:55:23;101416.00;;;20.91;66.02
9009;BME280;62813;51.424;6.762;2023-08-24T03:57:50;101407.03;;;20.96;65.90
9009;BME280;62813;51.424;6.762;2023-08-24T04:00:17;101387.16;;;20.88;66.30
9009;BME280;62813;51.424;6.762;2023-08-24T04:02:44;101382.88;;;20.78;66.51
9009;BME280;62813;51.424;6.762;2023-08-24T04:05:11;101382.41;;;20.68;66.98
9009;BME280;62813;51.424;6.762;2023-08-24T04:07:38;101377.69;;;20.73;66.00
9009;BME280;62813;51.424;6.762;2023-08-24T04:10:06;101371.25;;;20.83;64.98
9009;BME280;62813;51.424;6.762;2023-08-24T04:12:33;101367.13;;;20.86;65.55
9009;BME280;62813;51.424;6.762;2023-08-24T04:15:01;101371.56;;;20.82;64.31
9009;BME280;62813;51.424;6.762;2023-08-24T04:17:27;101375.34;;;20.81;65.25
9009;BME280;62813;51.424;6.762;2023-08-24T04:19:54;101357.38;;;20.81;65.38
9009;BME280;62813;51.424;6.762;2023-08-24T04:22:21;101356.41;;;20.77;66.25
9009;BME280;62813;51.424;6.762;2023-08-24T04:24:48;101364.28;;;20.65;67.95
9009;BME280;62813;51.424;6.762;2023-08-24T04:27:15;101364.91;;;20.53;68.67
9009;BME280;62813;51.424;6.762;2023-08-24T04:29:42;101360.66;;;20.61;68.24
9009;BME280;62813;51.424;6.762;2023-08-24T04:32:09;101357.06;;;20.74;67.87
9009;BME280;62813;51.424;6.762;2023-08-24T04:34:35;101345.25;;;20.66;68.72
9009;BME280;62813;51.424;6.762;2023-08-24T04:37:02;101329.16;;;20.49;70.04
9009;BME280;62813;51.424;6.762;2023-08-24T04:39:29;101310.41;;;20.49;68.88
9009;BME280;62813;51.424;6.762;2023-08-24T04:41:57;101304.25;;;20.49;69.49
9009;BME280;62813;51.424;6.762;2023-08-24T04:44:23;101300.00;;;20.48;68.00
9009;BME280;62813;51.424;6.762;2023-08-24T04:46:51;101301.41;;;20.45;67.85
9009;BME280;62813;51.424;6.762;2023-08-24T04:49:17;101304.88;;;20.37;67.71
9009;BME280;62813;51.424;6.762;2023-08-24T04:51:44;101292.84;;;20.26;68.78
9009;BME280;62813;51.424;6.762;2023-08-24T04:54:11;101282.28;;;20.21;69.12
9009;BME280;62813;51.424;6.762;2023-08-24T04:56:37;101287.03;;;20.24;68.23
9009;BME280;62813;51.424;6.762;2023-08-24T04:59:04;101287.22;;;20.36;68.04
9009;BME280;62813;51.424;6.762;2023-08-24T05:01:31;101277.31;;;20.45;67.34
9009;BME280;62813;51.424;6.762;2023-08-24T05:04:00;101288.19;;;20.40;66.73
9009;BME280;62813;51.424;6.762;2023-08-24T05:06:27;101280.47;;;20.38;67.40
9009;BME280;62813;51.424;6.762;2023-08-24T05:08:54;101274.75;;;20.31;68.04
9009;BME280;62813;51.424;6.762;2023-08-24T05:11:23;101266.41;;;20.24;67.85
9009;BME280;62813;51.424;6.762;2023-08-24T05:13:53;101253.66;;;20.21;68.09
9009;BME280;62813;51.424;6.762;2023-08-24T05:16:20;101241.53;;;20.32;68.18
9009;BME280;62813;51.424;6.762;2023-08-24T05:18:46;101235.41;;;20.32;66.94
9009;BME280;62813;51.424;6.762;2023-08-24T05:21:13;101229.91;;;20.37;67.11
9009;BME280;62813;51.424;6.762;2023-08-24T05:23:40;101246.28;;;20.35;67.83
9009;BME280;62813;51.424;6.762;2023-08-24T05:26:06;101242.34;;;20.33;67.28
9009;BME280;62813;51.424;6.762;2023-08-24T05:28:33;101248.47;;;20.42;67.54
9009;BME280;62813;51.424;6.762;2023-08-24T05:31:00;101241.22;;;20.34;67.59
9009;BME280;62813;51.424;6.762;2023-08-24T05:33:27;101250.66;;;20.23;67.96
9009;BME280;62813;51.424;6.762;2023-08-24T05:35:54;101256.47;;;20.25;67.58
9009;BME280;62813;51.424;6.762;2023-08-24T05:38:20;101251.91;;;20.17;68.40
9009;BME280;62813;51.424;6.762;2023-08-24T05:40:48;101260.41;;;20.19;68.40
9009;BME280;62813;51.424;6.762;2023-08-24T05:43:15;101267.69;;;20.35;68.25
9009;BME280;62813;51.424;6.762;2023-08-24T05:45:45;101269.41;;;20.31;68.83
9009;BME280;62813;51.424;6.762;2023-08-24T05:48:14;101263.94;;;20.36;68.43
9009;BME280;62813;51.424;6.762;2023-08-24T05:50:45;101265.34;;;20.43;68.09
9009;BME280;62813;51.424;6.762;2023-08-24T05:53:12;101254.19;;;20.41;68.26
9009;BME280;62813;51.424;6.762;2023-08-24T05:55:39;101260.31;;;20.41;68.17
9009;BME280;62813;51.424;6.762;2023-08-24T05:58:06;101259.84;;;20.39;68.05
9009;BME280;62813;51.424;6.762;2023-08-24T06:00:33;101265.31;;;20.34;68.48
9009;BME280;62813;51.424;6.762;2023-08-24T06:02:59;101261.72;;;20.47;68.36
9009;BME280;62813;51.424;6.762;2023-08-24T06:05:26;101257.16;;;20.56;67.95
9009;BME280;62813;51.424;6.762;2023-08-24T06:07:53;101255.28;;;20.48;68.09
9009;BME280;62813;51.424;6.762;2023-08-24T06:10:20;101252.75;;;20.43;68.60
9009;BME280;62813;51.424;6.762;2023-08-24T06:12:46;101251.34;;;20.63;67.70
9009;BME280;62813;51.424;6.762;2023-08-24T06:15:13;101255.72;;;20.76;67.26
9009;BME280;62813;51.424;6.762;2023-08-24T06:17:40;101256.69;;;20.63;67.85
9009;BME280;62813;51.424;6.762;2023-08-24T06:20:08;101257.63;;;20.75;67.26
9009;BME280;62813;51.424;6.762;2023-08-24T06:22:37;101253.38;;;20.74;67.03
9009;BME280;62813;51.424;6.762;2023-08-24T06:25:04;101251.94;;;20.68;67.48
9009;BME280;62813;51.424;6.762;2023-08-24T06:27:31;101258.38;;;20.85;67.14
9009;BME280;62813;51.424;6.762;2023-08-24T06:29:58;101258.84;;;20.95;67.41
9009;BME280;62813;51.424;6.762;2023-08-24T06:32:24;101251.44;;;21.09;66.82
9009;BME280;62813;51.424;6.762;2023-08-24T06:34:51;101252.66;;;21.12;66.71
9009;BME280;62813;51.424;6.762;2023-08-24T06:37:18;101250.16;;;21.15;66.46
9009;BME280;62813;51.424;6.762;2023-08-24T06:39:45;101243.47;;;21.39;65.86
9009;BME280;62813;51.424;6.762;2023-08-24T06:42:11;101247.44;;;21.33;66.42
9009;BME280;62813;51.424;6.762;2023-08-24T06:44:38;101238.44;;;21.37;64.94
9009;BME280;62813;51.424;6.762;2023-08-24T06:47:05;101243.00;;;21.37;65.23
9009;BME280;62813;51.424;6.762;2023-08-24T06:49:31;101245.03;;;21.48;65.47
9009;BME280;62813;51.424;6.762;2023-08-24T06:51:58;101239.63;;;21.57;65.17
9009;BME280;62813;51.424;6.762;2023-08-24T06:54:25;101233.22;;;21.70;64.17
9009;BME280;62813;51.424;6.762;2023-08-24T06:56:54;101234.81;;;21.71;64.49
9009;BME280;62813;51.424;6.762;2023-08-24T06:59:20;101218.44;;;21.64;64.95
9009;BME280;62813;51.424;6.762;2023-08-24T07:01:47;101223.72;;;21.81;63.59
9009;BME280;62813;51.424;6.762;2023-08-24T07:04:14;101223.72;;;21.81;63.83
9009;BME280;62813;51.424;6.762;2023-08-24T07:06:40;101221.53;;;21.75;63.76
9009;BME280;62813;51.424;6.762;2023-08-24T07:09:09;101228.44;;;21.84;63.66
9009;BME280;62813;51.424;6.762;2023-08-24T07:11:35;101227.13;;;21.90;63.31
9009;BME280;62813;51.424;6.762;2023-08-24T07:14:02;101225.81;;;21.97;62.91
9009;BME280;62813;51.424;6.762;2023-08-24T07:16:29;101224.84;;;22.10;62.77
9009;BME280;62813;51.424;6.762;2023-08-24T07:18:55;101224.84;;;22.10;62.44
9009;BME280;62813;51.424;6.762;2023-08-24T07:21:22;101221.16;;;22.14;62.57
9009;BME280;62813;51.424;6.762;2023-08-24T07:23:49;101221.69;;;22.29;61.95
9009;BME280;62813;51.424;6.762;2023-08-24T07:26:16;101216.44;;;22.32;61.85
9009;BME280;62813;51.424;6.762;2023-08-24T07:28:42;101203.66;;;22.29;61.58
9009;BME280;62813;51.424;6.762;2023-08-24T07:31:10;101195.09;;;22.36;61.36
9009;BME280;62813;51.424;6.762;2023-08-24T07:33:40;101190.16;;;22.38;61.82
9009;BME280;62813;51.424;6.762;2023-08-24T07:36:07;101187.84;;;22.48;61.16
9009;BME280;62813;51.424;6.762;2023-08-24T07:38:34;101181.28;;;22.58;61.29
9009;BME280;62813;51.424;6.762;2023-08-24T07:41:00;101182.31;;;22.65;61.80
9009;BME280;62813;51.424;6.762;2023-08-24T07:43:27;101178.66;;;22.70;61.38
9009;BME280;62813;51.424;6.762;2023-08-24T07:45:54;101177.44;;;22.80;60.63
9009;BME280;62813;51.424;6.762;2023-08-24T07:48:21;101173.66;;;22.81;60.76
9009;BME280;62813;51.424;6.762;2023-08-24T07:50:48;101180.72;;;22.85;60.95
9009;BME280;62813;51.424;6.762;2023-08-24T07:53:14;101197.41;;;22.91;60.64
9009;BME280;62813;51.424;6.762;2023-08-24T07:55:42;101198.78;;;22.97;60.05
9009;BME280;62813;51.424;6.762;2023-08-24T07:58:09;101212.66;;;22.87;59.68
9009;BME280;62813;51.424;6.762;2023-08-24T08:00:37;101224.44;;;22.94;60.93
9009;BME280;62813;51.424;6.762;2023-08-24T08:03:04;101233.63;;;23.06;60.25
9009;BME280;62813;51.424;6.762;2023-08-24T08:05:31;101213.16;;;23.13;60.04
9009;BME280;62813;51.424;6.762;2023-08-24T08:07:58;101218.88;;;23.24;59.39
9009;BME280;62813;51.424;6.762;2023-08-24T08:10:25;101218.66;;;23.29;59.09
9009;BME280;62813;51.424;6.762;2023-08-24T08:12:52;101202.97;;;23.31;58.73
9009;BME280;62813;51.424;6.762;2023-08-24T08:15:18;101197.25;;;23.32;58.35
9009;BME280;62813;51.424;6.762;2023-08-24T08:17:45;101195.22;;;23.42;58.09
9009;BME280;62813;51.424;6.762;2023-08-24T08:20:14;101184.06;;;23.52;58.58
9009;BME280;62813;51.424;6.762;2023-08-24T08:22:41;101183.34;;;23.43;57.67
9009;BME280;62813;51.424;6.762;2023-08-24T08:25:08;101183.16;;;23.48;57.78
9009;BME280;62813;51.424;6.762;2023-08-24T08:27:34;101177.66;;;23.44;58.07
9009;BME280;62813;51.424;6.762;2023-08-24T08:30:01;101180.13;;;23.49;58.28
9009;BME280;62813;51.424;6.762;2023-08-24T08:32:31;101178.09;;;23.58;58.64
9009;BME280;62813;51.424;6.762;2023-08-24T08:34:58;101183.41;;;23.55;57.52
9009;BME280;62813;51.424;6.762;2023-08-24T08:37:27;101180.22;;;23.65;58.11
9009;BME280;62813;51.424;6.762;2023-08-24T08:39:54;101172.28;;;23.68;58.36
9009;BME280;62813;51.424;6.762;2023-08-24T08:42:21;101177.28;;;23.82;58.37
9009;BME280;62813;51.424;6.762;2023-08-24T08:44:48;101168.19;;;23.87;58.57
9009;BME280;62813;51.424;6.762;2023-08-24T08:47:20;101179.84;;;23.91;56.62
9009;BME280;62813;51.424;6.762;2023-08-24T08:49:48;101160.25;;;23.90;56.39
9009;BME280;62813;51.424;6.762;2023-08-24T08:52:15;101156.50;;;23.95;56.19
9009;BME280;62813;51.424;6.762;2023-08-24T08:54:42;101150.34;;;23.94;56.31
9009;BME280;62813;51.424;6.762;2023-08-24T08:57:09;101162.53;;;24.04;55.93
9009;BME280;62813;51.424;6.762;2023-08-24T08:59:37;101163.06;;;24.09;55.13
9009;BME280;62813;51.424;6.762;2023-08-24T09:02:04;101149.91;;;24.20;55.54
9009;BME280;62813;51.424;6.762;2023-08-24T09:04:33;101141.59;;;24.25;54.99
9009;BME280;62813;51.424;6.762;2023-08-24T09:07:03;101128.25;;;24.29;55.20
9009;BME280;62813;51.424;6.762;2023-08-24T09:09:37;101115.41;;;24.38;54.45
9009;BME280;62813;51.424;6.762;2023-08-24T09:12:06;101121.50;;;24.50;54.34
9009;BME280;62813;51.424;6.762;2023-08-24T09:14:33;101117.44;;;24.57;54.31
9009;BME280;62813;51.424;6.762;2023-08-24T09:17:00;101106.06;;;24.63;53.53
9009;BME280;62813;51.424;6.762;2023-08-24T09:19:31;101102.84;;;24.73;53.69
9009;BME280;62813;51.424;6.762;2023-08-24T09:21:58;101094.94;;;24.80;54.00
9009;BME280;62813;51.424;6.762;2023-08-24T09:24:32;101086.16;;;24.83;53.54
9009;BME280;62813;51.424;6.762;2023-08-24T09:27:00;101068.56;;;24.89;52.61
9009;BME280;62813;51.424;6.762;2023-08-24T09:29:36;101068.75;;;24.97;52.65
9009;BME280;62813;51.424;6.762;2023-08-24T09:32:03;101055.09;;;24.89;51.95
9009;BME280;62813;51.424;6.762;2023-08-24T09:34:30;101057.78;;;24.89;52.46
9009;BME280;62813;51.424;6.762;2023-08-24T09:36:57;101056.16;;;25.01;52.47
9009;BME280;62813;51.424;6.762;2023-08-24T09:39:24;101050.84;;;25.04;52.83
9009;BME280;62813;51.424;6.762;2023-08-24T09:41:51;101037.50;;;25.11;51.85
9009;BME280;62813;51.424;6.762;2023-08-24T09:44:18;101030.97;;;25.12;51.75
9009;BME280;62813;51.424;6.762;2023-08-24T09:46:45;101027.50;;;25.12;51.84
9009;BME280;62813;51.424;6.762;2023-08-24T09:49:12;101021.06;;;25.16;51.60
9009;BME280;62813;51.424;6.762;2023-08-24T09:51:40;101032.44;;;25.25;51.89
9009;BME280;62813;51.424;6.762;2023-08-24T09:54:09;101039.66;;;25.21;51.96
9009;BME280;62813;51.424;6.762;2023-08-24T09:56:40;101036.88;;;25.18;52.42
9009;BME280;62813;51.424;6.762;2023-08-24T09:59:13;101046.69;;;25.26;52.23
9009;BME280;62813;51.424;6.762;2023-08-24T10:01:42;101054.50;;;25.31;52.19
9009;BME280;62813;51.424;6.762;2023-08-24T10:04:09;101060.13;;;25.42;51.78
9009;BME280;62813;51.424;6.762;2023-08-24T10:06:39;101059.22;;;25.34;53.46
9009;BME280;62813;51.424;6.762;2023-08-24T10:09:17;101058.13;;;25.39;53.24
9009;BME280;62813;51.424;6.762;2023-08-24T10:11:51;101074.13;;;25.47;53.16
9009;BME280;62813;51.424;6.762;2023-08-24T10:14:24;101071.88;;;25.49;52.77
9009;BME280;62813;51.424;6.762;2023-08-24T10:16:53;101073.78;;;25.49;52.55
9009;BME280;62813;51.424;6.762;2023-08-24T10:19:22;101072.84;;;25.41;52.63
9009;BME280;62813;51.424;6.762;2023-08-24T10:21:49;101073.09;;;25.36;51.79
9009;BME280;62813;51.424;6.762;2023-08-24T10:24:18;101073.34;;;25.47;51.92
9009;BME280;62813;51.424;6.762;2023-08-24T10:26:49;101069.31;;;25.56;51.78
9009;BME280;62813;51.424;6.762;2023-08-24T10:29:18;101076.09;;;25.66;51.51
9009;BME280;62813;51.424;6.762;2023-08-24T10:31:44;101076.53;;;25.68;51.53
9009;BME280;62813;51.424;6.762;2023-08-24T10:34:11;101082.75;;;25.72;52.13
9009;BME280;62813;51.424;6.762;2023-08-24T10:36:39;101083.91;;;25.71;52.47
9009;BME280;62813;51.424;6.762;2023-08-24T10:39:06;101087.53;;;25.79;52.79
9009;BME280;62813;51.424;6.762;2023-08-24T10:41:50;101086.91;;;25.85;51.96
9009;BME280;62813;51.424;6.762;2023-08-24T10:44:37;101078.84;;;25.89;52.68
9009;BME280;62813;51.424;6.762;2023-08-24T10:47:14;101085.69;;;26.02;52.30
9009;BME280;62813;51.424;6.762;2023-08-24T10:49:42;101079.13;;;26.03;51.95
9009;BME280;62813;51.424;6.762;2023-08-24T10:54:51;101071.75;;;26.00;51.37
9009;BME280;62813;51.424;6.762;2023-08-24T10:57:19;101072.97;;;25.83;51.85
9009;BME280;62813;51.424;6.762;2023-08-24T10:59:59;101075.88;;;25.94;52.23
9009;BME280;62813;51.424;6.762;2023-08-24T11:02:26;101070.41;;;25.90;52.14
9009;BME280;62813;51.424;6.762;2023-08-24T11:05:26;101070.88;;;25.96;52.48
9009;BME280;62813;51.424;6.762;2023-08-24T11:07:56;101066.34;;;26.00;51.93
9009;BME280;62813;51.424;6.762;2023-08-24T11:10:24;101058.50;;;25.95;51.27
9009;BME280;62813;51.424;6.762;2023-08-24T11:15:32;101045.53;;;25.81;52.00
9009;BME280;62813;51.424;6.762;2023-08-24T11:21:02;101031.38;;;25.88;51.81
9009;BME280;62813;51.424;6.762;2023-08-24T11:23:29;101024.56;;;25.94;52.07
9009;BME280;62813;51.424;6.762;2023-08-24T11:25:57;101028.06;;;25.94;52.69
9009;BME280;62813;51.424;6.762;2023-08-24T11:28:27;101026.28;;;25.83;52.19
9009;BME280;62813;51.424;6.762;2023-08-24T11:30:55;101031.56;;;25.76;52.23
9009;BME280;62813;51.424;6.762;2023-08-24T11:33:30;101043.19;;;25.60;53.28
9009;BME280;62813;51.424;6.762;2023-08-24T11:35:57;101053.47;;;25.55;52.52
9009;BME280;62813;51.424;6.762;2023-08-24T11:38:25;101054.09;;;25.48;53.78
9009;BME280;62813;51.424;6.762;2023-08-24T11:40:51;101064.13;;;25.48;54.07
9009;BME280;62813;51.424;6.762;2023-08-24T11:43:25;101072.56;;;25.46;54.00
9009;BME280;62813;51.424;6.762;2023-08-24T11:45:54;101070.59;;;25.43;53.77
9009;BME280;62813;51.424;6.762;2023-08-24T11:48:25;101064.41;;;25.43;53.83
9009;BME280;62813;51.424;6.762;2023-08-24T11:50:52;101058.03;;;25.51;53.64
9009;BME280;62813;51.424;6.762;2023-08-24T11:53:22;101054.09;;;25.48;53.54
9009;BME280;62813;51.424;6.762;2023-08-24T11:55:53;101055.38;;;25.54;53.52
9009;BME280;62813;51.424;6.762;2023-08-24T11:58:31;101050.53;;;25.60;53.30
9009;BME280;62813;51.424;6.762;2023-08-24T12:00:58;101055.19;;;25.63;52.95
9009;BME280;62813;51.424;6.762;2023-08-24T12:03:25;101058.34;;;25.65;53.60
9009;BME280;62813;51.424;6.762;2023-08-24T12:05:52;101066.13;;;25.70;53.42
9009;BME280;62813;51.424;6.762;2023-08-24T12:08:19;101065.09;;;25.75;53.43
9009;BME280;62813;51.424;6.762;2023-08-24T12:10:46;101050.84;;;25.78;53.69
9009;BME280;62813;51.424;6.762;2023-08-24T12:13:12;101038.56;;;25.80;53.86
9009;BME280;62813;51.424;6.762;2023-08-24T12:15:40;101027.13;;;25.87;54.03
9009;BME280;62813;51.424;6.762;2023-08-24T12:18:11;101021.31;;;25.85;52.58
9009;BME280;62813;51.424;6.762;2023-08-24T12:20:40;101013.44;;;25.76;53.20
9009;BME280;62813;51.424;6.762;2023-08-24T12:23:09;101009.72;;;25.84;53.64
9009;BME280;62813;51.424;6.762;2023-08-24T12:25:37;101004.59;;;25.79;53.20
9009;BME280;62813;51.424;6.762;2023-08-24T12:28:11;100989.41;;;25.71;53.53
9009;BME280;62813;51.424;6.762;2023-08-24T12:30:48;100963.50;;;25.67;53.74
9009;BME280;62813;51.424;6.762;2023-08-24T12:33:28;100951.56;;;25.68;54.26
9009;BME280;62813;51.424;6.762;2023-08-24T12:35:55;100949.28;;;25.50;55.76
9009;BME280;62813;51.424;6.762;2023-08-24T12:38:23;100936.94;;;25.49;56.89
9009;BME280;62813;51.424;6.762;2023-08-24T12:40:51;100939.75;;;25.37;60.49
9009;BME280;62813;51.424;6.762;2023-08-24T12:43:18;100939.72;;;25.14;62.27
9009;BME280;62813;51.424;6.762;2023-08-24T12:45:45;100929.97;;;25.10;63.20
9009;BME280;62813;51.424;6.762;2023-08-24T12:48:11;100925.00;;;25.12;64.16
9009;BME280;62813;51.424;6.762;2023-08-24T12:50:38;100902.28;;;24.94;64.00
9009;BME280;62813;51.424;6.762;2023-08-24T12:53:05;100912.50;;;25.04;63.61
9009;BME280;62813;51.424;6.762;2023-08-24T12:55:36;100911.41;;;24.89;64.70
9009;BME280;62813;51.424;6.762;2023-08-24T12:58:03;100906.28;;;24.84;64.77
9009;BME280;62813;51.424;6.762;2023-08-24T13:00:30;100905.75;;;24.94;65.12
9009;BME280;62813;51.424;6.762;2023-08-24T13:02:57;100909.25;;;24.95;65.02
9009;BME280;62813;51.424;6.762;2023-08-24T13:05:24;100913.03;;;25.09;64.35
9009;BME280;62813;51.424;6.762;2023-08-24T13:07:50;100906.00;;;25.05;64.55
9009;BME280;62813;51.424;6.762;2023-08-24T13:10:18;100910.94;;;25.03;63.05
9009;BME280;62813;51.424;6.762;2023-08-24T13:12:45;100923.94;;;24.97;63.94
9009;BME280;62813;51.424;6.762;2023-08-24T13:15:12;100925.84;;;24.97;64.30
9009;BME280;62813;51.424;6.762;2023-08-24T13:17:38;100927.84;;;25.00;62.38